createdAt,value
2018-03-23T00:02:11.370Z,31.03
2018-03-23T00:04:40.367Z,36.57
2018-03-23T00:07:08.902Z,36.07
2018-03-23T00:09:37.119Z,30.27
2018-03-23T00:12:05.313Z,31.97
2018-03-23T00:14:33.808Z,27.63
2018-03-23T00:17:02.005Z,31.27
2018-03-23T00:19:30.221Z,28.23
2018-03-23T00:21:58.969Z,29.07
2018-03-23T00:24:27.173Z,30.97
2018-03-23T00:26:55.734Z,28.10
2018-03-23T00:29:24.306Z,24.50
2018-03-23T00:31:53.136Z,26.97
2018-03-23T00:34:21.339Z,30.10
2018-03-23T00:36:49.941Z,28.63
2018-03-23T00:39:18.786Z,26.63
2018-03-23T00:41:46.989Z,20.47
2018-03-23T00:44:15.203Z,23.13
2018-03-23T00:46:43.423Z,30.13
2018-03-23T00:49:11.714Z,27.00
2018-03-23T00:51:40.380Z,21.90
2018-03-23T00:54:08.986Z,23.80
2018-03-23T00:56:37.177Z,28.37
2018-03-23T00:59:05.456Z,24.87
2018-03-23T01:01:33.685Z,23.77
2018-03-23T01:04:03.188Z,27.20
2018-03-23T01:06:32.180Z,28.57
2018-03-23T01:09:00.390Z,29.70
2018-03-23T01:11:29.768Z,20.10
2018-03-23T01:13:58.342Z,25.80
2018-03-23T01:16:27.325Z,22.73
2018-03-23T01:18:55.533Z,20.77
2018-03-23T01:21:23.977Z,20.40
2018-03-23T01:23:52.192Z,23.40
2018-03-23T01:26:20.779Z,22.90
2018-03-23T01:28:49.224Z,21.33
2018-03-23T01:31:18.199Z,21.73
2018-03-23T01:33:47.849Z,21.40
2018-03-23T01:36:16.049Z,18.67
2018-03-23T01:38:44.267Z,24.80
2018-03-23T01:41:12.505Z,23.33
2018-03-23T01:43:40.717Z,25.90
2018-03-23T01:46:08.930Z,16.13
2018-03-23T01:48:37.971Z,20.90
2018-03-23T01:51:06.398Z,23.80
2018-03-23T01:53:43.528Z,22.27
2018-03-23T01:56:11.738Z,21.83
2018-03-23T01:58:39.997Z,21.20
2018-03-23T02:01:08.489Z,17.07
2018-03-23T02:03:36.780Z,22.50
2018-03-23T02:06:05.752Z,22.67
2018-03-23T02:08:33.967Z,18.07
2018-03-23T02:11:04.293Z,23.80
2018-03-23T02:13:32.668Z,23.80
2018-03-23T02:16:00.897Z,17.57
2018-03-23T02:18:29.106Z,21.47
2018-03-23T02:20:58.197Z,20.60
2018-03-23T02:23:26.690Z,22.37
2018-03-23T02:25:55.960Z,21.37
2018-03-23T02:28:24.657Z,20.10
2018-03-23T02:30:52.899Z,19.47
2018-03-23T02:33:21.642Z,20.00
2018-03-23T02:35:50.618Z,23.90
2018-03-23T02:38:18.826Z,24.70
2018-03-23T02:40:47.070Z,20.33
2018-03-23T02:43:15.279Z,25.13
2018-03-23T02:45:43.498Z,23.13
2018-03-23T02:48:12.285Z,23.60
2018-03-23T02:50:40.998Z,18.13
2018-03-23T02:53:09.693Z,24.57
2018-03-23T02:55:38.141Z,21.00
2018-03-23T02:58:06.435Z,22.57
2018-03-23T03:00:34.653Z,22.37
2018-03-23T03:03:03.157Z,21.63
2018-03-23T03:05:31.366Z,22.50
2018-03-23T03:07:59.581Z,22.40
2018-03-23T03:10:27.804Z,26.93
2018-03-23T03:12:59.578Z,29.33
2018-03-23T03:15:27.812Z,29.27
2018-03-23T03:17:56.013Z,26.23
2018-03-23T03:20:24.812Z,36.80
2018-03-23T03:22:53.018Z,28.03
2018-03-23T03:25:21.318Z,28.70
2018-03-23T03:30:24.689Z,28.20
2018-03-23T03:32:52.983Z,30.40
2018-03-23T03:35:21.957Z,31.00
2018-03-23T03:37:50.175Z,30.77
2018-03-23T03:40:18.416Z,33.03
2018-03-23T03:42:51.224Z,33.70
2018-03-23T03:45:20.201Z,24.73
2018-03-23T03:47:48.408Z,28.30
2018-03-23T03:50:17.066Z,36.20
2018-03-23T03:52:45.957Z,27.90
2018-03-23T03:55:15.342Z,28.50
2018-03-23T03:57:43.594Z,28.43
2018-03-23T04:00:11.798Z,30.77
2018-03-23T04:02:40.491Z,36.60
2018-03-23T04:05:08.706Z,33.93
2018-03-23T04:07:36.918Z,26.20
2018-03-23T04:10:05.905Z,26.90
2018-03-23T04:12:34.125Z,29.90
2018-03-23T04:15:02.997Z,30.63
2018-03-23T04:17:31.213Z,27.20
2018-03-23T04:20:00.104Z,28.37
2018-03-23T04:22:29.074Z,26.00
2018-03-23T04:25:02.165Z,28.83
2018-03-23T04:27:31.660Z,29.33
2018-03-23T04:30:00.552Z,28.77
2018-03-23T04:32:28.873Z,36.13
2018-03-23T04:34:57.081Z,26.97
2018-03-23T04:37:25.286Z,20.97
2018-03-23T04:39:53.505Z,28.80
2018-03-23T04:42:21.796Z,27.30
2018-03-23T04:44:50.285Z,34.97
2018-03-23T04:47:18.686Z,31.80
2018-03-23T04:49:47.417Z,26.00
2018-03-23T04:52:17.217Z,39.77
2018-03-23T04:54:46.181Z,30.80
2018-03-23T04:57:14.785Z,30.80
2018-03-23T04:59:42.997Z,31.03
2018-03-23T05:02:12.353Z,31.00
2018-03-23T05:04:40.561Z,29.33
2018-03-23T05:07:08.772Z,29.63
2018-03-23T05:09:37.288Z,37.50
2018-03-23T05:12:05.510Z,46.00
2018-03-23T05:14:38.366Z,40.37
2018-03-23T05:17:07.341Z,33.63
2018-03-23T05:19:35.552Z,41.70
2018-03-23T05:22:04.680Z,42.77
2018-03-23T05:24:33.302Z,34.90
2018-03-23T05:27:01.981Z,33.50
2018-03-23T05:29:30.446Z,32.67
2018-03-23T05:31:59.361Z,30.53
2018-03-23T05:34:27.569Z,34.20
2018-03-23T05:36:55.775Z,31.80
2018-03-23T05:39:24.006Z,39.93
2018-03-23T05:41:53.524Z,37.10
2018-03-23T05:44:22.485Z,39.83
2018-03-23T05:46:50.693Z,34.53
2018-03-23T05:49:20.195Z,44.10
2018-03-23T05:51:49.607Z,44.80
2018-03-23T05:54:18.213Z,47.63
2018-03-23T05:56:47.077Z,38.47
2018-03-23T05:59:16.051Z,44.20
2018-03-23T06:02:00.619Z,55.77
2018-03-23T06:04:29.589Z,52.07
2018-03-23T06:06:57.800Z,56.93
2018-03-23T06:09:27.110Z,41.80
2018-03-23T06:11:55.318Z,46.40
2018-03-23T06:14:24.158Z,46.00
2018-03-23T06:16:52.367Z,42.77
2018-03-23T06:19:20.570Z,47.30
2018-03-23T06:21:50.017Z,47.23
2018-03-23T06:24:18.221Z,45.47
2018-03-23T06:26:46.959Z,42.10
2018-03-23T06:29:15.278Z,44.17
2018-03-23T06:31:43.858Z,47.93
2018-03-23T06:34:12.049Z,57.13
2018-03-23T06:36:40.266Z,54.33
2018-03-23T06:39:08.670Z,51.13
2018-03-23T06:41:38.533Z,50.20
2018-03-23T06:44:06.736Z,48.80
2018-03-23T06:46:35.571Z,52.63
2018-03-23T06:49:03.769Z,59.43
2018-03-23T06:51:32.538Z,41.00
2018-03-23T06:54:00.812Z,37.27
2018-03-23T06:56:29.009Z,45.67
2018-03-23T06:58:57.734Z,42.50
2018-03-23T07:01:25.949Z,50.13
2018-03-23T07:03:54.494Z,46.23
2018-03-23T07:06:22.705Z,42.30
2018-03-23T07:08:51.588Z,35.33
2018-03-23T07:11:19.781Z,43.50
2018-03-23T07:13:49.059Z,37.73
2018-03-23T07:16:17.270Z,35.73
2018-03-23T07:18:46.118Z,36.43
2018-03-23T07:21:15.631Z,40.60
2018-03-23T07:23:44.605Z,28.50
2018-03-23T07:26:13.029Z,28.90
2018-03-23T07:28:41.526Z,25.33
2018-03-23T07:31:10.188Z,24.70
2018-03-23T07:33:38.639Z,24.90
2018-03-23T07:36:06.850Z,27.10
2018-03-23T07:38:35.077Z,22.63
2018-03-23T07:41:03.301Z,27.30
2018-03-23T07:43:31.965Z,26.07
2018-03-23T07:46:00.998Z,30.37
2018-03-23T07:48:29.210Z,32.57
2018-03-23T07:50:58.004Z,30.10
2018-03-23T07:53:26.833Z,32.00
2018-03-23T07:55:55.038Z,31.57
2018-03-23T07:58:23.858Z,29.13
2018-03-23T08:00:52.069Z,27.93
2018-03-23T09:25:18.554Z,26.03
2018-03-23T09:27:47.279Z,30.50
2018-03-23T09:30:15.717Z,36.30
2018-03-23T09:32:44.065Z,30.13
2018-03-23T09:35:12.778Z,30.57
2018-03-23T09:37:40.946Z,32.37
2018-03-23T09:40:09.658Z,30.63
2018-03-23T09:42:38.982Z,31.77
2018-03-23T09:45:07.184Z,29.80
2018-03-23T09:47:35.393Z,32.60
2018-03-23T09:50:04.002Z,30.40
2018-03-23T09:52:33.225Z,32.70
2018-03-23T09:55:01.451Z,27.50
2018-03-23T09:57:29.844Z,31.63
2018-03-23T09:59:58.110Z,38.33
2018-03-23T10:02:26.437Z,37.77
2018-03-23T10:04:54.649Z,36.93
2018-03-23T10:07:23.361Z,35.70
2018-03-23T10:09:51.614Z,30.83
2018-03-23T10:12:20.721Z,34.80
2018-03-23T10:14:52.927Z,31.13
2018-03-23T10:17:21.954Z,33.30
2018-03-23T10:19:57.145Z,27.77
2018-03-23T10:22:25.353Z,34.23
2018-03-23T10:24:53.561Z,39.03
2018-03-23T10:27:22.685Z,32.60
2018-03-23T10:29:51.178Z,32.80
2018-03-23T10:32:20.422Z,34.30
2018-03-23T10:34:48.642Z,38.63
2018-03-23T10:37:16.963Z,32.43
2018-03-23T10:39:45.364Z,37.43
2018-03-23T10:42:13.640Z,29.97
2018-03-23T10:44:41.879Z,39.33
2018-03-23T10:47:11.171Z,34.50
2018-03-23T10:49:43.509Z,44.17
2018-03-23T10:52:15.258Z,39.70
2018-03-23T10:54:44.415Z,34.97
2018-03-23T10:57:12.877Z,38.53
2018-03-23T10:59:41.850Z,34.90
2018-03-23T11:15:34.476Z,30.87
2018-03-23T11:18:03.702Z,38.47
2018-03-23T11:20:31.965Z,37.97
2018-03-23T11:23:00.673Z,43.23
2018-03-23T11:25:29.552Z,34.13
2018-03-23T11:27:58.809Z,37.10
2018-03-23T11:30:27.010Z,35.37
2018-03-23T11:32:55.334Z,30.23
2018-03-23T11:35:24.320Z,33.30
2018-03-23T11:37:53.291Z,38.33
2018-03-23T11:40:21.510Z,33.80
2018-03-23T11:42:50.386Z,34.13
2018-03-23T11:45:19.358Z,38.40
2018-03-23T11:47:47.569Z,32.53
2018-03-23T11:50:15.858Z,38.67
2018-03-23T11:52:44.494Z,38.90
2018-03-23T11:55:12.805Z,39.43
2018-03-23T11:57:41.277Z,39.50
2018-03-23T12:00:09.493Z,36.47
2018-03-23T12:02:37.941Z,33.87
2018-03-23T12:05:06.154Z,36.87
2018-03-23T12:10:09.358Z,33.63
2018-03-23T12:12:37.566Z,34.20
2018-03-23T12:15:06.182Z,33.43
2018-03-23T12:17:35.160Z,38.40
2018-03-23T12:20:03.861Z,30.23
2018-03-23T12:22:32.071Z,39.80
2018-03-23T12:25:00.277Z,30.97
2018-03-23T12:27:28.992Z,31.63
2018-03-23T12:29:57.569Z,35.70
2018-03-23T12:32:26.163Z,34.30
2018-03-23T12:34:55.164Z,33.57
2018-03-23T12:37:23.617Z,34.50
2018-03-23T12:39:51.958Z,32.83
2018-03-23T12:42:21.297Z,37.70
2018-03-23T12:44:49.589Z,31.70
2018-03-23T12:47:18.570Z,32.17
2018-03-23T12:49:47.793Z,29.40
2018-03-23T12:52:17.498Z,34.47
2018-03-23T12:54:46.910Z,29.80
2018-03-23T12:57:15.959Z,31.17
2018-03-23T12:59:44.174Z,27.67
2018-03-23T13:02:13.361Z,25.90
2018-03-23T13:04:41.566Z,35.30
2018-03-23T13:07:09.847Z,35.27
2018-03-23T13:09:38.061Z,30.97
2018-03-23T13:12:06.275Z,32.90
2018-03-23T13:14:34.663Z,31.30
2018-03-23T13:17:03.633Z,28.20
2018-03-23T13:19:31.845Z,30.17
2018-03-23T13:22:00.840Z,32.17
2018-03-23T13:24:29.045Z,32.70
2018-03-23T13:26:57.326Z,39.53
2018-03-23T13:29:26.069Z,30.87
2018-03-23T13:31:55.409Z,26.23
2018-03-23T13:34:23.614Z,32.07
2018-03-23T13:36:51.822Z,33.73
2018-03-23T13:39:20.045Z,30.27
2018-03-23T13:41:49.289Z,34.57
2018-03-23T13:44:18.393Z,32.80
2018-03-23T13:46:47.432Z,27.50
2018-03-23T13:49:15.637Z,33.23
2018-03-23T13:51:44.753Z,32.20
2018-03-23T13:54:14.100Z,27.70
2018-03-23T13:56:48.198Z,23.60
2018-03-23T13:59:21.993Z,25.23
2018-03-23T14:01:58.687Z,30.20
2018-03-23T14:04:27.193Z,26.30
2018-03-23T14:06:55.717Z,23.47
2018-03-23T14:09:24.688Z,22.57
2018-03-23T14:11:52.904Z,21.70
2018-03-23T14:14:21.405Z,18.50
2018-03-23T14:16:49.626Z,19.93
2018-03-23T14:19:17.841Z,20.60
2018-03-23T14:21:46.609Z,24.57
2018-03-23T14:24:15.577Z,23.13
2018-03-23T14:26:44.079Z,14.80
2018-03-23T14:29:13.401Z,23.00
2018-03-23T14:31:42.295Z,18.00
2018-03-23T14:34:10.502Z,21.73
2018-03-23T14:36:38.704Z,20.90
2018-03-23T14:39:07.535Z,22.67
2018-03-23T14:41:36.610Z,22.47
2018-03-23T14:44:05.590Z,19.17
2018-03-23T14:46:34.415Z,21.53
2018-03-23T14:49:02.978Z,21.80
2018-03-23T14:51:31.606Z,20.27
2018-03-23T14:54:00.435Z,28.30
2018-03-23T14:56:30.242Z,23.47
2018-03-23T14:59:05.128Z,24.27
2018-03-23T15:01:33.524Z,21.03
2018-03-23T15:04:01.774Z,20.70
2018-03-23T15:06:30.222Z,21.97
2018-03-23T15:08:58.425Z,23.93
2018-03-23T15:11:27.848Z,18.57
2018-03-23T15:14:02.464Z,19.13
2018-03-23T15:16:31.249Z,15.80
2018-03-23T15:19:00.230Z,22.27
2018-03-23T15:21:28.992Z,18.13
2018-03-23T15:23:57.209Z,15.90
2018-03-23T15:26:25.510Z,19.07
2018-03-23T15:28:53.840Z,14.90
2018-03-23T15:31:23.240Z,18.00
2018-03-23T15:33:51.446Z,15.70
2018-03-23T15:36:20.432Z,16.73
2018-03-23T15:38:48.677Z,13.90
2018-03-23T15:41:16.876Z,16.73
2018-03-23T15:43:46.157Z,15.90
2018-03-23T15:46:14.685Z,20.23
2018-03-23T15:48:43.637Z,16.00
2018-03-23T15:51:12.055Z,17.90
2018-03-23T15:53:40.916Z,22.50
2018-03-23T15:56:09.597Z,18.60
2018-03-23T15:58:38.074Z,23.07
2018-03-23T16:01:06.289Z,20.60
2018-03-23T16:03:34.733Z,22.03
2018-03-23T16:06:03.107Z,25.20
2018-03-23T16:08:31.329Z,20.87
2018-03-23T16:10:59.986Z,19.77
2018-03-23T16:13:28.247Z,22.83
2018-03-23T16:15:56.735Z,20.53
2018-03-23T16:18:25.026Z,19.27
2018-03-23T16:20:53.738Z,21.97
2018-03-23T16:23:21.973Z,22.87
2018-03-23T16:25:50.284Z,19.77
2018-03-23T16:28:20.437Z,19.17
2018-03-23T16:30:56.928Z,25.87
2018-03-23T16:33:25.141Z,18.90
2018-03-23T16:35:54.121Z,19.13
2018-03-23T16:38:22.345Z,23.23
2018-03-23T16:40:50.557Z,19.90
2018-03-23T16:43:19.850Z,23.43
2018-03-23T16:45:48.821Z,23.90
2018-03-23T16:48:17.567Z,20.37
2018-03-23T16:50:45.975Z,22.97
2018-03-23T16:53:14.626Z,21.90
2018-03-23T16:55:46.165Z,24.57
2018-03-23T16:58:15.047Z,22.37
2018-03-23T17:00:43.226Z,33.60
2018-03-23T17:05:45.116Z,23.30
2018-03-23T17:08:13.333Z,23.10
2018-03-23T17:10:42.354Z,19.37
2018-03-23T17:13:10.581Z,23.90
2018-03-23T17:15:39.266Z,22.20
2018-03-23T17:18:08.264Z,23.90
2018-03-23T17:20:37.137Z,21.30
2018-03-23T17:23:05.337Z,20.53
2018-03-23T17:25:43.971Z,20.23
2018-03-23T17:28:12.632Z,23.70
2018-03-23T17:30:41.884Z,20.17
2018-03-23T17:33:10.330Z,17.73
2018-03-23T17:35:38.539Z,23.90
2018-03-23T17:38:06.753Z,18.73
2018-03-23T17:40:34.972Z,21.77
2018-03-23T17:43:03.732Z,19.53
2018-03-23T17:45:33.062Z,26.10
2018-03-23T17:48:01.269Z,26.47
2018-03-23T17:50:30.200Z,18.77
2018-03-23T17:53:07.773Z,25.63
2018-03-23T17:55:36.561Z,26.37
2018-03-23T17:58:04.902Z,20.73
2018-03-23T18:00:33.457Z,26.63
2018-03-23T18:03:02.768Z,24.87
2018-03-23T18:05:31.440Z,26.73
2018-03-23T18:08:00.425Z,26.83
2018-03-23T18:10:29.478Z,27.73
2018-03-23T18:12:57.801Z,28.50
2018-03-23T18:15:26.529Z,29.33
2018-03-23T18:17:55.021Z,26.60
2018-03-23T18:20:23.654Z,34.30
2018-03-23T18:22:52.636Z,28.20
2018-03-23T18:25:20.857Z,29.97
2018-03-23T18:27:49.719Z,25.73
2018-03-23T18:30:19.246Z,21.83
2018-03-23T18:32:47.949Z,25.83
2018-03-23T18:35:16.165Z,30.87
2018-03-23T18:37:44.673Z,26.00
2018-03-23T18:40:13.713Z,33.07
2018-03-23T18:42:42.519Z,25.50
2018-03-23T18:45:10.726Z,33.00
2018-03-23T18:47:38.981Z,35.43
2018-03-23T18:50:07.727Z,30.93
2018-03-23T18:52:36.088Z,24.10
2018-03-23T18:55:05.046Z,20.03
2018-03-23T18:57:33.782Z,24.03
2018-03-23T19:00:02.121Z,30.90
2018-03-23T19:02:30.516Z,25.97
2018-03-23T19:05:04.829Z,27.97
2018-03-23T19:07:33.038Z,32.77
2018-03-23T19:10:01.302Z,23.10
2018-03-23T19:12:29.572Z,22.40
2018-03-23T19:14:57.819Z,30.63
2018-03-23T19:17:26.294Z,27.67
2018-03-23T19:20:00.546Z,29.73
2018-03-23T19:22:29.532Z,23.63
2018-03-23T19:24:59.161Z,28.20
2018-03-23T19:27:27.741Z,28.00
2018-03-23T19:29:56.450Z,25.70
2018-03-23T19:32:25.120Z,26.30
2018-03-23T19:34:53.710Z,34.60
2018-03-23T19:37:21.925Z,24.20
2018-03-23T19:39:50.162Z,30.10
2018-03-23T19:42:19.184Z,25.23
2018-03-23T19:44:48.598Z,28.80
2018-03-23T19:47:19.578Z,30.33
2018-03-23T19:49:48.049Z,23.30
2018-03-23T19:52:16.753Z,31.20
2018-03-23T19:54:45.738Z,29.37
2018-03-23T19:57:23.063Z,33.07
2018-03-23T19:59:52.493Z,26.10
2018-03-23T20:02:21.055Z,31.47
2018-03-23T20:04:49.365Z,23.93
2018-03-23T20:07:17.695Z,19.27
2018-03-23T20:09:47.102Z,25.33
2018-03-23T20:12:15.269Z,26.37
2018-03-23T20:14:43.674Z,23.90
2018-03-23T20:17:12.472Z,24.20
2018-03-23T20:19:40.673Z,28.70
2018-03-23T20:22:09.181Z,23.10
2018-03-23T20:24:37.402Z,26.10
2018-03-23T20:27:12.405Z,25.93
2018-03-23T20:29:41.470Z,21.67
2018-03-23T20:32:15.585Z,22.87
2018-03-23T20:34:44.035Z,22.40
2018-03-23T20:37:12.257Z,23.40
2018-03-23T20:39:40.435Z,23.17
2018-03-23T20:42:09.114Z,22.53
2018-03-23T20:44:38.098Z,16.23
2018-03-23T20:47:06.805Z,18.83
2018-03-23T20:49:36.186Z,20.40
2018-03-23T20:52:05.969Z,25.80
2018-03-23T20:54:34.471Z,25.13
2018-03-23T20:57:03.191Z,26.13
2018-03-23T20:59:32.153Z,23.77
2018-03-23T21:02:00.364Z,20.67
2018-03-23T21:04:29.898Z,24.87
2018-03-23T21:07:01.352Z,30.03
2018-03-23T21:12:48.754Z,25.37
2018-03-23T21:15:16.950Z,23.90
2018-03-23T21:17:45.933Z,19.63
2018-03-23T21:20:15.265Z,26.80
2018-03-23T21:22:43.485Z,28.73
2018-03-23T21:25:12.050Z,22.27
2018-03-23T21:27:40.516Z,21.40
2018-03-23T21:30:08.801Z,25.00
2018-03-23T21:32:37.081Z,43.30
2018-03-23T21:35:05.488Z,44.50
2018-03-23T21:37:33.689Z,30.17
2018-03-23T21:40:02.664Z,22.43
2018-03-23T21:42:31.346Z,29.33
2018-03-23T21:45:00.340Z,24.90
2018-03-23T21:47:28.546Z,30.40
2018-03-23T21:50:01.768Z,21.27
2018-03-23T21:52:30.854Z,27.23
2018-03-23T21:54:59.065Z,29.00
2018-03-23T21:57:27.353Z,30.00
2018-03-23T21:59:55.556Z,27.80
2018-03-23T22:02:32.125Z,25.70
2018-03-23T22:05:02.682Z,26.23
2018-03-23T22:07:31.645Z,26.67
2018-03-23T22:10:00.617Z,29.00
2018-03-23T22:12:29.628Z,24.20
2018-03-23T22:14:58.951Z,26.83
2018-03-23T22:17:28.206Z,25.70
2018-03-23T22:20:01.305Z,24.90
2018-03-23T22:22:29.525Z,32.40
2018-03-23T22:24:57.778Z,27.43
2018-03-23T22:27:26.878Z,24.63
2018-03-23T22:29:55.821Z,25.57
2018-03-23T22:32:24.424Z,26.37
2018-03-23T22:34:52.673Z,26.30
2018-03-23T22:37:20.881Z,26.93
2018-03-23T22:39:49.730Z,26.33
2018-03-23T22:42:18.044Z,22.33
2018-03-23T22:44:46.286Z,23.43
2018-03-23T22:47:14.506Z,25.43
2018-03-23T22:49:43.086Z,27.07
2018-03-23T22:52:16.809Z,27.00
2018-03-23T22:54:45.897Z,30.13
2018-03-23T22:57:14.173Z,24.80
2018-03-23T22:59:42.375Z,29.17
2018-03-23T23:02:10.586Z,30.97
2018-03-23T23:04:39.237Z,28.17
2018-03-23T23:07:08.198Z,25.60
2018-03-23T23:09:36.413Z,25.57
2018-03-23T23:12:04.630Z,47.53
2018-03-23T23:14:32.843Z,30.83
2018-03-23T23:17:01.037Z,23.20
2018-03-23T23:19:29.901Z,34.30
2018-03-23T23:21:58.464Z,30.10
2018-03-23T23:24:26.759Z,28.03
2018-03-23T23:26:55.325Z,29.73
2018-03-23T23:29:23.827Z,25.17
2018-03-23T23:31:52.208Z,37.70
2018-03-23T23:34:20.411Z,35.90
2018-03-23T23:36:49.113Z,32.07
2018-03-23T23:39:17.577Z,29.20
2018-03-23T23:41:48.921Z,23.87
2018-03-23T23:44:17.906Z,31.73
2018-03-23T23:46:46.109Z,24.90
2018-03-23T23:49:14.758Z,25.87
2018-03-23T23:51:43.073Z,27.80
2018-03-23T23:54:11.626Z,23.73
2018-03-23T23:56:40.030Z,21.77
2018-03-23T23:59:08.594Z,25.40
